Warning: fopen(/var/www/metroair/shared/private/wxdata/metar/AVWX/metar_ETAR): failed to open stream: Permission denied in /var/www/metroair/shared/private/library/orig_library/lib_airport.php on line 346

Warning: fwrite() expects parameter 1 to be resource, boolean given in /var/www/metroair/shared/private/library/orig_library/lib_airport.php on line 347

Warning: fclose() expects parameter 1 to be resource, boolean given in /var/www/metroair/shared/private/library/orig_library/lib_airport.php on line 348

Warning: fopen(/var/www/metroair/shared/private/wxdata/TAF/AVWX/taf_ETAR): failed to open stream: Permission denied in /var/www/metroair/shared/private/library/orig_library/lib_airport.php on line 533

Warning: fwrite() expects parameter 1 to be resource, boolean given in /var/www/metroair/shared/private/library/orig_library/lib_airport.php on line 534

Warning: fclose() expects parameter 1 to be resource, boolean given in /var/www/metroair/shared/private/library/orig_library/lib_airport.php on line 535

MET9201 - Ramstein AFB to Baltimore

Airbus A330-243
792MT
8 hrs 00 mins
3481 nm
Charter - M | TU | TH

Departure

Departing from
Ramstein AFB (RMS)
Departure gate
Ramp
Scheduled Departure
GMT 1500
Local 1700
METAR ETAR 260458Z 23003KT 9999 FEW100 02/01 A2999 RMK AO2A SLP168 T00150009 $
TAF TAF ETAR 260203Z 2602/2708 23009KT 9999 BKN100 611008 QNH3000INS BECMG 2606/2607 23010G15KT 9999 BKN070 QNH2996INS BECMG 2616/2617 24015G20KT 9999 BKN030 QNH2988INS BECMG 2621/2622 22015G20KT 9000 -SHRA BKN010 QNH2976INS TX11/2615Z TNM04/2603Z
  • No charts available

Arrival

Arriving at
Baltimore (BWI)
Arrival gate
Scheduled Arrival
GMT 2300
Local 1800
METAR KBWI 260454Z 30014G24KT 10SM BKN055 06/M04 A2984 RMK AO2 PK WND 30029/0415 SLP103 T00611044 402390061
TAF KBWI 252331Z 2600/2706 30015G22KT P6SM SCT070 FM262100 28012KT P6SM FEW250 FM270200 24004KT P6SM FEW200

Route Map

Return Flights

MET9200
Airbus A330-243
1000 GMT

Popularity

Hub Current Bids PiReps this month Total PiReps
KMCI 0 0 0
KLAX 0 0 0
KBOS 0 0 0